sensor_id;sensor_type;location;lat;lon;timestamp;P1;durP1;ratioP1;P2;durP2;ratioP2
10653;SDS011;5375;51.250;6.776;2023-03-14T00:01:23;3.30;;;1.30;;
10653;SDS011;5375;51.250;6.776;2023-03-14T00:03:49;3.67;;;1.33;;
10653;SDS011;5375;51.250;6.776;2023-03-14T00:06:15;2.27;;;1.40;;
10653;SDS011;5375;51.250;6.776;2023-03-14T00:08:42;1.80;;;1.20;;
10653;SDS011;5375;51.250;6.776;2023-03-14T00:11:10;2.97;;;1.00;;
10653;SDS011;5375;51.250;6.776;2023-03-14T00:13:38;2.87;;;1.20;;
10653;SDS011;5375;51.250;6.776;2023-03-14T00:16:13;1.93;;;1.10;;
10653;SDS011;5375;51.250;6.776;2023-03-14T00:18:38;2.93;;;1.13;;
10653;SDS011;5375;51.250;6.776;2023-03-14T00:21:05;2.53;;;1.07;;
10653;SDS011;5375;51.250;6.776;2023-03-14T00:23:32;1.97;;;1.10;;
10653;SDS011;5375;51.250;6.776;2023-03-14T00:26:00;2.23;;;1.23;;
10653;SDS011;5375;51.250;6.776;2023-03-14T00:28:30;2.80;;;1.20;;
10653;SDS011;5375;51.250;6.776;2023-03-14T00:30:56;2.33;;;1.30;;
10653;SDS011;5375;51.250;6.776;2023-03-14T00:33:22;2.07;;;1.20;;
10653;SDS011;5375;51.250;6.776;2023-03-14T00:35:54;1.17;;;1.03;;
10653;SDS011;5375;51.250;6.776;2023-03-14T00:38:25;1.60;;;0.90;;
10653;SDS011;5375;51.250;6.776;2023-03-14T00:40:51;1.33;;;1.10;;
10653;SDS011;5375;51.250;6.776;2023-03-14T00:43:17;2.17;;;1.20;;
10653;SDS011;5375;51.250;6.776;2023-03-14T00:45:46;1.40;;;0.90;;
10653;SDS011;5375;51.250;6.776;2023-03-14T00:48:12;1.40;;;1.20;;
10653;SDS011;5375;51.250;6.776;2023-03-14T00:50:38;2.17;;;1.30;;
10653;SDS011;5375;51.250;6.776;2023-03-14T00:53:04;2.40;;;1.00;;
10653;SDS011;5375;51.250;6.776;2023-03-14T00:55:29;2.30;;;1.30;;
10653;SDS011;5375;51.250;6.776;2023-03-14T00:57:55;3.03;;;1.10;;
10653;SDS011;5375;51.250;6.776;2023-03-14T01:00:20;2.60;;;1.07;;
10653;SDS011;5375;51.250;6.776;2023-03-14T01:02:46;1.80;;;1.07;;
10653;SDS011;5375;51.250;6.776;2023-03-14T01:05:12;2.10;;;1.27;;
10653;SDS011;5375;51.250;6.776;2023-03-14T01:07:37;4.60;;;1.33;;
10653;SDS011;5375;51.250;6.776;2023-03-14T01:10:04;2.37;;;1.23;;
10653;SDS011;5375;51.250;6.776;2023-03-14T01:12:31;2.80;;;1.03;;
10653;SDS011;5375;51.250;6.776;2023-03-14T01:14:57;2.80;;;1.07;;
10653;SDS011;5375;51.250;6.776;2023-03-14T01:17:22;1.10;;;0.90;;
10653;SDS011;5375;51.250;6.776;2023-03-14T01:19:48;3.43;;;1.30;;
10653;SDS011;5375;51.250;6.776;2023-03-14T01:22:14;1.97;;;1.00;;
10653;SDS011;5375;51.250;6.776;2023-03-14T01:24:39;3.33;;;1.37;;
10653;SDS011;5375;51.250;6.776;2023-03-14T01:27:05;1.80;;;1.00;;
10653;SDS011;5375;51.250;6.776;2023-03-14T01:29:31;4.57;;;1.07;;
10653;SDS011;5375;51.250;6.776;2023-03-14T01:31:56;5.90;;;1.47;;
10653;SDS011;5375;51.250;6.776;2023-03-14T01:34:22;2.10;;;1.03;;
10653;SDS011;5375;51.250;6.776;2023-03-14T01:36:48;3.40;;;1.13;;
10653;SDS011;5375;51.250;6.776;2023-03-14T01:39:13;2.43;;;0.97;;
10653;SDS011;5375;51.250;6.776;2023-03-14T01:41:39;2.50;;;1.10;;
10653;SDS011;5375;51.250;6.776;2023-03-14T01:44:05;3.13;;;1.00;;
10653;SDS011;5375;51.250;6.776;2023-03-14T01:49:11;1.67;;;0.97;;
10653;SDS011;5375;51.250;6.776;2023-03-14T01:51:51;2.20;;;1.10;;
10653;SDS011;5375;51.250;6.776;2023-03-14T01:54:43;3.10;;;1.13;;
10653;SDS011;5375;51.250;6.776;2023-03-14T01:57:26;2.50;;;1.20;;
10653;SDS011;5375;51.250;6.776;2023-03-14T01:59:58;2.23;;;1.30;;
10653;SDS011;5375;51.250;6.776;2023-03-14T02:02:28;1.63;;;1.00;;
10653;SDS011;5375;51.250;6.776;2023-03-14T02:04:55;3.73;;;1.03;;
10653;SDS011;5375;51.250;6.776;2023-03-14T02:07:33;2.07;;;0.90;;
10653;SDS011;5375;51.250;6.776;2023-03-14T02:10:08;2.30;;;1.10;;
10653;SDS011;5375;51.250;6.776;2023-03-14T02:12:35;1.77;;;1.00;;
10653;SDS011;5375;51.250;6.776;2023-03-14T02:15:02;1.77;;;0.70;;
10653;SDS011;5375;51.250;6.776;2023-03-14T02:17:27;1.93;;;0.90;;
10653;SDS011;5375;51.250;6.776;2023-03-14T02:22:55;1.97;;;1.17;;
10653;SDS011;5375;51.250;6.776;2023-03-14T02:25:34;1.00;;;0.90;;
10653;SDS011;5375;51.250;6.776;2023-03-14T02:28:08;1.57;;;1.00;;
10653;SDS011;5375;51.250;6.776;2023-03-14T02:30:34;2.33;;;0.87;;
10653;SDS011;5375;51.250;6.776;2023-03-14T02:33:01;1.83;;;0.90;;
10653;SDS011;5375;51.250;6.776;2023-03-14T02:35:43;1.63;;;1.10;;
10653;SDS011;5375;51.250;6.776;2023-03-14T02:38:17;3.30;;;1.00;;
10653;SDS011;5375;51.250;6.776;2023-03-14T02:40:51;1.77;;;1.10;;
10653;SDS011;5375;51.250;6.776;2023-03-14T02:43:17;2.80;;;1.10;;
10653;SDS011;5375;51.250;6.776;2023-03-14T02:45:44;3.63;;;1.00;;
10653;SDS011;5375;51.250;6.776;2023-03-14T02:50:46;6.20;;;0.90;;
10653;SDS011;5375;51.250;6.776;2023-03-14T02:53:17;3.60;;;1.00;;
10653;SDS011;5375;51.250;6.776;2023-03-14T02:55:49;1.97;;;1.00;;
10653;SDS011;5375;51.250;6.776;2023-03-14T02:58:15;12.03;;;1.07;;
10653;SDS011;5375;51.250;6.776;2023-03-14T03:00:41;1.93;;;0.93;;
10653;SDS011;5375;51.250;6.776;2023-03-14T03:03:07;1.00;;;0.87;;
10653;SDS011;5375;51.250;6.776;2023-03-14T03:05:32;1.83;;;1.00;;
10653;SDS011;5375;51.250;6.776;2023-03-14T03:07:58;1.33;;;0.90;;
10653;SDS011;5375;51.250;6.776;2023-03-14T03:10:24;13.83;;;1.77;;
10653;SDS011;5375;51.250;6.776;2023-03-14T03:12:50;1.33;;;0.87;;
10653;SDS011;5375;51.250;6.776;2023-03-14T03:15:16;2.33;;;1.00;;
10653;SDS011;5375;51.250;6.776;2023-03-14T03:17:42;1.50;;;0.80;;
10653;SDS011;5375;51.250;6.776;2023-03-14T03:20:08;2.07;;;0.93;;
10653;SDS011;5375;51.250;6.776;2023-03-14T03:22:37;2.20;;;0.90;;
10653;SDS011;5375;51.250;6.776;2023-03-14T03:25:04;1.77;;;1.00;;
10653;SDS011;5375;51.250;6.776;2023-03-14T03:27:31;1.53;;;0.97;;
10653;SDS011;5375;51.250;6.776;2023-03-14T03:29:57;1.40;;;0.70;;
10653;SDS011;5375;51.250;6.776;2023-03-14T03:32:23;2.83;;;1.07;;
10653;SDS011;5375;51.250;6.776;2023-03-14T03:34:49;1.30;;;0.70;;
10653;SDS011;5375;51.250;6.776;2023-03-14T03:37:15;4.20;;;1.00;;
10653;SDS011;5375;51.250;6.776;2023-03-14T03:39:41;1.30;;;0.90;;
10653;SDS011;5375;51.250;6.776;2023-03-14T03:42:06;2.27;;;0.90;;
10653;SDS011;5375;51.250;6.776;2023-03-14T03:44:32;3.13;;;1.27;;
10653;SDS011;5375;51.250;6.776;2023-03-14T03:46:57;3.37;;;1.17;;
10653;SDS011;5375;51.250;6.776;2023-03-14T03:49:23;2.13;;;0.87;;
10653;SDS011;5375;51.250;6.776;2023-03-14T03:51:49;0.97;;;0.60;;
10653;SDS011;5375;51.250;6.776;2023-03-14T03:54:14;2.10;;;0.83;;
10653;SDS011;5375;51.250;6.776;2023-03-14T03:56:40;1.70;;;0.80;;
10653;SDS011;5375;51.250;6.776;2023-03-14T03:59:06;1.83;;;0.80;;
10653;SDS011;5375;51.250;6.776;2023-03-14T04:01:31;2.07;;;0.93;;
10653;SDS011;5375;51.250;6.776;2023-03-14T04:03:57;1.87;;;0.80;;
10653;SDS011;5375;51.250;6.776;2023-03-14T04:06:22;0.97;;;0.60;;
10653;SDS011;5375;51.250;6.776;2023-03-14T04:08:48;2.03;;;0.90;;
10653;SDS011;5375;51.250;6.776;2023-03-14T04:11:13;1.27;;;0.90;;
10653;SDS011;5375;51.250;6.776;2023-03-14T04:13:39;1.33;;;0.77;;
10653;SDS011;5375;51.250;6.776;2023-03-14T04:16:09;2.03;;;0.90;;
10653;SDS011;5375;51.250;6.776;2023-03-14T04:18:43;3.10;;;0.97;;
10653;SDS011;5375;51.250;6.776;2023-03-14T04:21:08;3.37;;;0.83;;
10653;SDS011;5375;51.250;6.776;2023-03-14T04:23:34;2.60;;;1.17;;
10653;SDS011;5375;51.250;6.776;2023-03-14T04:26:00;0.93;;;0.67;;
10653;SDS011;5375;51.250;6.776;2023-03-14T04:28:25;1.93;;;0.87;;
10653;SDS011;5375;51.250;6.776;2023-03-14T04:30:51;1.50;;;0.70;;
10653;SDS011;5375;51.250;6.776;2023-03-14T04:33:16;2.03;;;0.90;;
10653;SDS011;5375;51.250;6.776;2023-03-14T04:35:45;1.73;;;0.90;;
10653;SDS011;5375;51.250;6.776;2023-03-14T04:38:12;1.40;;;0.90;;
10653;SDS011;5375;51.250;6.776;2023-03-14T04:40:38;2.00;;;0.87;;
10653;SDS011;5375;51.250;6.776;2023-03-14T04:43:05;1.00;;;0.80;;
10653;SDS011;5375;51.250;6.776;2023-03-14T04:45:31;1.50;;;0.80;;
10653;SDS011;5375;51.250;6.776;2023-03-14T04:47:56;1.57;;;0.73;;
10653;SDS011;5375;51.250;6.776;2023-03-14T04:50:22;2.33;;;0.77;;
10653;SDS011;5375;51.250;6.776;2023-03-14T04:52:47;1.20;;;0.90;;
10653;SDS011;5375;51.250;6.776;2023-03-14T04:55:13;1.33;;;0.73;;
10653;SDS011;5375;51.250;6.776;2023-03-14T04:57:39;1.47;;;0.90;;
10653;SDS011;5375;51.250;6.776;2023-03-14T05:00:07;4.37;;;0.90;;
10653;SDS011;5375;51.250;6.776;2023-03-14T05:02:34;1.50;;;0.73;;
10653;SDS011;5375;51.250;6.776;2023-03-14T05:05:02;2.27;;;0.90;;
10653;SDS011;5375;51.250;6.776;2023-03-14T05:07:28;1.60;;;0.83;;
10653;SDS011;5375;51.250;6.776;2023-03-14T05:09:54;1.40;;;0.87;;
10653;SDS011;5375;51.250;6.776;2023-03-14T05:12:20;5.53;;;1.00;;
10653;SDS011;5375;51.250;6.776;2023-03-14T05:14:45;3.77;;;0.90;;
10653;SDS011;5375;51.250;6.776;2023-03-14T05:17:11;3.60;;;0.83;;
10653;SDS011;5375;51.250;6.776;2023-03-14T05:19:39;2.40;;;0.80;;
10653;SDS011;5375;51.250;6.776;2023-03-14T05:22:07;3.30;;;0.90;;
10653;SDS011;5375;51.250;6.776;2023-03-14T05:24:33;1.63;;;0.80;;
10653;SDS011;5375;51.250;6.776;2023-03-14T05:26:59;2.37;;;0.77;;
10653;SDS011;5375;51.250;6.776;2023-03-14T05:29:24;2.53;;;0.70;;
10653;SDS011;5375;51.250;6.776;2023-03-14T05:31:50;2.77;;;0.87;;
10653;SDS011;5375;51.250;6.776;2023-03-14T05:34:15;2.60;;;0.70;;
10653;SDS011;5375;51.250;6.776;2023-03-14T05:36:41;1.30;;;0.63;;
10653;SDS011;5375;51.250;6.776;2023-03-14T05:39:06;2.63;;;0.80;;
10653;SDS011;5375;51.250;6.776;2023-03-14T05:41:32;1.63;;;0.80;;
10653;SDS011;5375;51.250;6.776;2023-03-14T05:43:58;2.30;;;0.90;;
10653;SDS011;5375;51.250;6.776;2023-03-14T05:46:23;1.53;;;0.80;;
10653;SDS011;5375;51.250;6.776;2023-03-14T05:48:49;1.27;;;0.70;;
10653;SDS011;5375;51.250;6.776;2023-03-14T05:51:15;1.73;;;0.83;;
10653;SDS011;5375;51.250;6.776;2023-03-14T05:53:40;2.73;;;0.83;;
10653;SDS011;5375;51.250;6.776;2023-03-14T05:56:06;4.40;;;0.90;;
10653;SDS011;5375;51.250;6.776;2023-03-14T05:58:32;1.57;;;0.80;;
10653;SDS011;5375;51.250;6.776;2023-03-14T06:01:01;0.77;;;0.70;;
10653;SDS011;5375;51.250;6.776;2023-03-14T06:03:28;2.40;;;0.80;;
10653;SDS011;5375;51.250;6.776;2023-03-14T06:05:53;1.17;;;0.77;;
10653;SDS011;5375;51.250;6.776;2023-03-14T06:08:19;1.63;;;0.60;;
10653;SDS011;5375;51.250;6.776;2023-03-14T06:10:44;1.20;;;0.70;;
10653;SDS011;5375;51.250;6.776;2023-03-14T06:13:10;1.17;;;0.70;;
10653;SDS011;5375;51.250;6.776;2023-03-14T06:15:35;3.60;;;0.60;;
10653;SDS011;5375;51.250;6.776;2023-03-14T06:18:01;2.73;;;0.83;;
10653;SDS011;5375;51.250;6.776;2023-03-14T06:20:27;3.97;;;0.77;;
10653;SDS011;5375;51.250;6.776;2023-03-14T06:22:53;1.30;;;0.93;;
10653;SDS011;5375;51.250;6.776;2023-03-14T06:25:18;2.10;;;0.70;;
10653;SDS011;5375;51.250;6.776;2023-03-14T06:27:44;1.50;;;0.80;;
10653;SDS011;5375;51.250;6.776;2023-03-14T06:30:10;1.30;;;0.60;;
10653;SDS011;5375;51.250;6.776;2023-03-14T06:32:36;0.83;;;0.50;;
10653;SDS011;5375;51.250;6.776;2023-03-14T06:35:01;3.27;;;0.70;;
10653;SDS011;5375;51.250;6.776;2023-03-14T06:37:27;2.43;;;0.70;;
10653;SDS011;5375;51.250;6.776;2023-03-14T06:39:54;1.43;;;0.63;;
10653;SDS011;5375;51.250;6.776;2023-03-14T06:42:20;1.73;;;0.70;;
10653;SDS011;5375;51.250;6.776;2023-03-14T06:44:46;1.20;;;0.60;;
10653;SDS011;5375;51.250;6.776;2023-03-14T06:47:12;5.80;;;0.60;;
10653;SDS011;5375;51.250;6.776;2023-03-14T06:49:37;1.60;;;0.60;;
10653;SDS011;5375;51.250;6.776;2023-03-14T06:52:03;1.53;;;0.60;;
10653;SDS011;5375;51.250;6.776;2023-03-14T06:54:28;1.53;;;0.80;;
10653;SDS011;5375;51.250;6.776;2023-03-14T06:56:54;1.77;;;0.70;;
10653;SDS011;5375;51.250;6.776;2023-03-14T06:59:19;0.83;;;0.50;;
10653;SDS011;5375;51.250;6.776;2023-03-14T07:01:45;3.70;;;0.67;;
10653;SDS011;5375;51.250;6.776;2023-03-14T07:04:11;3.17;;;0.60;;
10653;SDS011;5375;51.250;6.776;2023-03-14T07:06:37;1.80;;;0.67;;
10653;SDS011;5375;51.250;6.776;2023-03-14T07:09:04;1.87;;;0.77;;
10653;SDS011;5375;51.250;6.776;2023-03-14T07:11:30;1.20;;;0.50;;
10653;SDS011;5375;51.250;6.776;2023-03-14T07:13:56;1.13;;;0.50;;
10653;SDS011;5375;51.250;6.776;2023-03-14T07:16:21;1.43;;;0.60;;
10653;SDS011;5375;51.250;6.776;2023-03-14T07:18:47;1.77;;;0.67;;
10653;SDS011;5375;51.250;6.776;2023-03-14T07:21:14;1.27;;;0.67;;
10653;SDS011;5375;51.250;6.776;2023-03-14T07:23:39;1.47;;;0.80;;
10653;SDS011;5375;51.250;6.776;2023-03-14T07:26:06;1.20;;;0.57;;
10653;SDS011;5375;51.250;6.776;2023-03-14T07:28:32;3.37;;;0.70;;
10653;SDS011;5375;51.250;6.776;2023-03-14T07:30:57;1.97;;;0.50;;
10653;SDS011;5375;51.250;6.776;2023-03-14T07:33:23;3.43;;;0.70;;
10653;SDS011;5375;51.250;6.776;2023-03-14T07:35:49;1.07;;;0.50;;
10653;SDS011;5375;51.250;6.776;2023-03-14T07:38:15;1.90;;;0.77;;
10653;SDS011;5375;51.250;6.776;2023-03-14T07:40:41;2.93;;;0.53;;
10653;SDS011;5375;51.250;6.776;2023-03-14T07:43:07;0.80;;;0.50;;
10653;SDS011;5375;51.250;6.776;2023-03-14T07:45:33;2.43;;;0.60;;
10653;SDS011;5375;51.250;6.776;2023-03-14T07:47:58;1.03;;;0.60;;
10653;SDS011;5375;51.250;6.776;2023-03-14T07:50:25;1.87;;;0.70;;
10653;SDS011;5375;51.250;6.776;2023-03-14T07:52:51;1.00;;;0.57;;
10653;SDS011;5375;51.250;6.776;2023-03-14T07:55:17;1.07;;;0.60;;
10653;SDS011;5375;51.250;6.776;2023-03-14T07:57:42;2.87;;;0.50;;
10653;SDS011;5375;51.250;6.776;2023-03-14T08:00:08;1.60;;;0.80;;
10653;SDS011;5375;51.250;6.776;2023-03-14T08:02:35;1.77;;;0.50;;
10653;SDS011;5375;51.250;6.776;2023-03-14T08:05:01;1.47;;;0.63;;
10653;SDS011;5375;51.250;6.776;2023-03-14T08:07:27;2.07;;;0.50;;
10653;SDS011;5375;51.250;6.776;2023-03-14T08:09:53;1.33;;;0.60;;
10653;SDS011;5375;51.250;6.776;2023-03-14T08:12:18;1.13;;;0.50;;
10653;SDS011;5375;51.250;6.776;2023-03-14T08:14:44;2.13;;;0.60;;
10653;SDS011;5375;51.250;6.776;2023-03-14T08:17:10;1.80;;;0.47;;
10653;SDS011;5375;51.250;6.776;2023-03-14T08:19:35;0.97;;;0.50;;
10653;SDS011;5375;51.250;6.776;2023-03-14T08:22:01;0.57;;;0.40;;
10653;SDS011;5375;51.250;6.776;2023-03-14T08:24:28;2.03;;;0.57;;
10653;SDS011;5375;51.250;6.776;2023-03-14T08:26:53;0.73;;;0.40;;
10653;SDS011;5375;51.250;6.776;2023-03-14T08:29:19;1.37;;;0.50;;
10653;SDS011;5375;51.250;6.776;2023-03-14T08:31:45;1.27;;;0.60;;
10653;SDS011;5375;51.250;6.776;2023-03-14T08:34:10;1.00;;;0.50;;
10653;SDS011;5375;51.250;6.776;2023-03-14T08:36:36;1.30;;;0.67;;
10653;SDS011;5375;51.250;6.776;2023-03-14T08:39:02;0.93;;;0.40;;
10653;SDS011;5375;51.250;6.776;2023-03-14T08:41:28;1.00;;;0.50;;
10653;SDS011;5375;51.250;6.776;2023-03-14T08:43:54;0.93;;;0.50;;
10653;SDS011;5375;51.250;6.776;2023-03-14T08:46:20;1.27;;;0.60;;
10653;SDS011;5375;51.250;6.776;2023-03-14T08:48:45;2.10;;;0.60;;
10653;SDS011;5375;51.250;6.776;2023-03-14T08:51:12;0.57;;;0.40;;
10653;SDS011;5375;51.250;6.776;2023-03-14T08:53:39;1.07;;;0.50;;
10653;SDS011;5375;51.250;6.776;2023-03-14T08:56:05;1.90;;;0.40;;
10653;SDS011;5375;51.250;6.776;2023-03-14T08:58:34;1.73;;;0.40;;
10653;SDS011;5375;51.250;6.776;2023-03-14T09:01:02;1.47;;;0.73;;
10653;SDS011;5375;51.250;6.776;2023-03-14T09:03:27;1.47;;;0.50;;
10653;SDS011;5375;51.250;6.776;2023-03-14T09:05:53;0.60;;;0.40;;
10653;SDS011;5375;51.250;6.776;2023-03-14T09:08:19;0.87;;;0.40;;
10653;SDS011;5375;51.250;6.776;2023-03-14T09:10:44;0.60;;;0.40;;
10653;SDS011;5375;51.250;6.776;2023-03-14T09:13:10;0.70;;;0.40;;
10653;SDS011;5375;51.250;6.776;2023-03-14T09:15:35;2.07;;;0.40;;
10653;SDS011;5375;51.250;6.776;2023-03-14T09:18:01;1.97;;;0.43;;
10653;SDS011;5375;51.250;6.776;2023-03-14T09:20:27;0.63;;;0.47;;
10653;SDS011;5375;51.250;6.776;2023-03-14T09:22:52;0.40;;;0.30;;
10653;SDS011;5375;51.250;6.776;2023-03-14T09:25:18;0.93;;;0.33;;
10653;SDS011;5375;51.250;6.776;2023-03-14T09:27:44;0.87;;;0.40;;
10653;SDS011;5375;51.250;6.776;2023-03-14T09:30:09;0.53;;;0.33;;
10653;SDS011;5375;51.250;6.776;2023-03-14T09:32:35;0.60;;;0.40;;
10653;SDS011;5375;51.250;6.776;2023-03-14T09:35:01;1.07;;;0.40;;
10653;SDS011;5375;51.250;6.776;2023-03-14T09:37:27;0.80;;;0.50;;
10653;SDS011;5375;51.250;6.776;2023-03-14T09:39:52;0.60;;;0.40;;
10653;SDS011;5375;51.250;6.776;2023-03-14T09:42:22;0.70;;;0.50;;
10653;SDS011;5375;51.250;6.776;2023-03-14T09:47:19;0.70;;;0.40;;
10653;SDS011;5375;51.250;6.776;2023-03-14T09:49:49;0.70;;;0.40;;
10653;SDS011;5375;51.250;6.776;2023-03-14T09:52:16;0.60;;;0.40;;
10653;SDS011;5375;51.250;6.776;2023-03-14T09:54:48;0.80;;;0.40;;
10653;SDS011;5375;51.250;6.776;2023-03-14T09:57:21;0.70;;;0.33;;
10653;SDS011;5375;51.250;6.776;2023-03-14T09:59:54;1.00;;;0.40;;
10653;SDS011;5375;51.250;6.776;2023-03-14T10:02:32;0.33;;;0.30;;
10653;SDS011;5375;51.250;6.776;2023-03-14T10:04:59;0.50;;;0.40;;
10653;SDS011;5375;51.250;6.776;2023-03-14T10:07:29;0.63;;;0.40;;
10653;SDS011;5375;51.250;6.776;2023-03-14T10:09:56;0.30;;;0.20;;
10653;SDS011;5375;51.250;6.776;2023-03-14T10:12:33;0.47;;;0.37;;
10653;SDS011;5375;51.250;6.776;2023-03-14T10:15:09;1.03;;;0.40;;
10653;SDS011;5375;51.250;6.776;2023-03-14T10:17:49;0.40;;;0.40;;
10653;SDS011;5375;51.250;6.776;2023-03-14T10:25:41;1.57;;;0.50;;
10653;SDS011;5375;51.250;6.776;2023-03-14T10:28:11;0.40;;;0.30;;
10653;SDS011;5375;51.250;6.776;2023-03-14T10:30:50;0.70;;;0.40;;
10653;SDS011;5375;51.250;6.776;2023-03-14T10:33:23;1.63;;;0.40;;
10653;SDS011;5375;51.250;6.776;2023-03-14T10:35:55;0.43;;;0.30;;
10653;SDS011;5375;51.250;6.776;2023-03-14T10:38:26;0.80;;;0.50;;
10653;SDS011;5375;51.250;6.776;2023-03-14T10:40:54;0.47;;;0.30;;
10653;SDS011;5375;51.250;6.776;2023-03-14T10:43:25;1.00;;;0.40;;
10653;SDS011;5375;51.250;6.776;2023-03-14T10:45:56;0.50;;;0.40;;
10653;SDS011;5375;51.250;6.776;2023-03-14T10:51:06;0.50;;;0.30;;
10653;SDS011;5375;51.250;6.776;2023-03-14T10:56:11;0.50;;;0.40;;
10653;SDS011;5375;51.250;6.776;2023-03-14T10:58:48;0.40;;;0.30;;
10653;SDS011;5375;51.250;6.776;2023-03-14T11:04:01;0.40;;;0.30;;
10653;SDS011;5375;51.250;6.776;2023-03-14T11:06:58;0.60;;;0.30;;
10653;SDS011;5375;51.250;6.776;2023-03-14T11:14:48;1.73;;;0.50;;
10653;SDS011;5375;51.250;6.776;2023-03-14T11:26:09;0.57;;;0.30;;
10653;SDS011;5375;51.250;6.776;2023-03-14T11:28:57;1.50;;;0.40;;
10653;SDS011;5375;51.250;6.776;2023-03-14T11:31:28;0.50;;;0.40;;
10653;SDS011;5375;51.250;6.776;2023-03-14T11:36:46;0.80;;;0.50;;
10653;SDS011;5375;51.250;6.776;2023-03-14T11:39:18;1.10;;;0.40;;
10653;SDS011;5375;51.250;6.776;2023-03-14T11:41:46;0.70;;;0.40;;
10653;SDS011;5375;51.250;6.776;2023-03-14T11:44:24;0.40;;;0.30;;
10653;SDS011;5375;51.250;6.776;2023-03-14T11:49:36;0.70;;;0.47;;
10653;SDS011;5375;51.250;6.776;2023-03-14T11:57:23;0.93;;;0.30;;
10653;SDS011;5375;51.250;6.776;2023-03-14T12:10:44;0.70;;;0.40;;
10653;SDS011;5375;51.250;6.776;2023-03-14T12:13:16;0.80;;;0.40;;
10653;SDS011;5375;51.250;6.776;2023-03-14T12:15:50;0.73;;;0.50;;
10653;SDS011;5375;51.250;6.776;2023-03-14T12:18:21;0.80;;;0.47;;
10653;SDS011;5375;51.250;6.776;2023-03-14T12:21:06;1.03;;;0.40;;
10653;SDS011;5375;51.250;6.776;2023-03-14T12:23:41;0.40;;;0.33;;
10653;SDS011;5375;51.250;6.776;2023-03-14T12:26:28;1.00;;;0.53;;
10653;SDS011;5375;51.250;6.776;2023-03-14T12:29:16;0.70;;;0.30;;
10653;SDS011;5375;51.250;6.776;2023-03-14T12:31:43;1.40;;;0.40;;
10653;SDS011;5375;51.250;6.776;2023-03-14T12:41:51;1.10;;;0.50;;
10653;SDS011;5375;51.250;6.776;2023-03-14T12:46:59;0.40;;;0.40;;
10653;SDS011;5375;51.250;6.776;2023-03-14T12:49:39;0.57;;;0.40;;
10653;SDS011;5375;51.250;6.776;2023-03-14T12:52:10;1.00;;;0.50;;
10653;SDS011;5375;51.250;6.776;2023-03-14T13:00:00;0.90;;;0.40;;
10653;SDS011;5375;51.250;6.776;2023-03-14T13:02:47;1.23;;;0.43;;
10653;SDS011;5375;51.250;6.776;2023-03-14T13:15:46;2.10;;;0.90;;
10653;SDS011;5375;51.250;6.776;2023-03-14T13:18:17;0.97;;;0.50;;
10653;SDS011;5375;51.250;6.776;2023-03-14T13:21:43;0.80;;;0.50;;
10653;SDS011;5375;51.250;6.776;2023-03-14T13:23:39;1.33;;;0.60;;
10653;SDS011;5375;51.250;6.776;2023-03-14T13:26:09;1.43;;;0.70;;
10653;SDS011;5375;51.250;6.776;2023-03-14T13:28:40;1.60;;;0.60;;
10653;SDS011;5375;51.250;6.776;2023-03-14T13:31:12;0.83;;;0.57;;
10653;SDS011;5375;51.250;6.776;2023-03-14T13:33:58;1.63;;;0.53;;
10653;SDS011;5375;51.250;6.776;2023-03-14T13:36:29;1.60;;;0.60;;
10653;SDS011;5375;51.250;6.776;2023-03-14T13:38:59;1.77;;;0.50;;
10653;SDS011;5375;51.250;6.776;2023-03-14T13:41:27;0.80;;;0.60;;
10653;SDS011;5375;51.250;6.776;2023-03-14T13:44:37;1.63;;;0.60;;
10653;SDS011;5375;51.250;6.776;2023-03-14T13:46:48;1.57;;;0.50;;
10653;SDS011;5375;51.250;6.776;2023-03-14T13:49:17;0.80;;;0.50;;
10653;SDS011;5375;51.250;6.776;2023-03-14T13:51:49;1.10;;;0.70;;
10653;SDS011;5375;51.250;6.776;2023-03-14T13:54:16;2.07;;;0.70;;
10653;SDS011;5375;51.250;6.776;2023-03-14T13:56:46;2.00;;;0.60;;
10653;SDS011;5375;51.250;6.776;2023-03-14T13:59:22;2.20;;;0.73;;
10653;SDS011;5375;51.250;6.776;2023-03-14T14:01:59;1.60;;;0.90;;
10653;SDS011;5375;51.250;6.776;2023-03-14T14:04:31;2.30;;;0.80;;
10653;SDS011;5375;51.250;6.776;2023-03-14T14:06:58;3.13;;;0.60;;
10653;SDS011;5375;51.250;6.776;2023-03-14T14:09:27;2.87;;;0.60;;
10653;SDS011;5375;51.250;6.776;2023-03-14T14:12:04;1.10;;;0.53;;
10653;SDS011;5375;51.250;6.776;2023-03-14T14:14:36;2.20;;;0.70;;
10653;SDS011;5375;51.250;6.776;2023-03-14T14:17:06;1.73;;;0.50;;
10653;SDS011;5375;51.250;6.776;2023-03-14T14:19:37;1.37;;;0.60;;
10653;SDS011;5375;51.250;6.776;2023-03-14T14:22:05;3.03;;;0.70;;
10653;SDS011;5375;51.250;6.776;2023-03-14T14:24:33;2.40;;;0.60;;
10653;SDS011;5375;51.250;6.776;2023-03-14T14:27:03;2.07;;;0.67;;
10653;SDS011;5375;51.250;6.776;2023-03-14T14:29:39;2.17;;;0.83;;
10653;SDS011;5375;51.250;6.776;2023-03-14T14:34:43;4.70;;;1.10;;
10653;SDS011;5375;51.250;6.776;2023-03-14T14:37:31;3.17;;;0.80;;
10653;SDS011;5375;51.250;6.776;2023-03-14T14:39:59;3.60;;;0.80;;
10653;SDS011;5375;51.250;6.776;2023-03-14T14:42:31;3.90;;;1.10;;
10653;SDS011;5375;51.250;6.776;2023-03-14T14:44:58;1.67;;;0.60;;
10653;SDS011;5375;51.250;6.776;2023-03-14T14:47:28;1.60;;;0.77;;
10653;SDS011;5375;51.250;6.776;2023-03-14T14:49:54;1.67;;;0.60;;
10653;SDS011;5375;51.250;6.776;2023-03-14T14:52:45;1.43;;;0.60;;
10653;SDS011;5375;51.250;6.776;2023-03-14T14:55:18;2.80;;;0.90;;
10653;SDS011;5375;51.250;6.776;2023-03-14T14:57:48;1.77;;;0.80;;
10653;SDS011;5375;51.250;6.776;2023-03-14T15:00:20;1.20;;;0.70;;
10653;SDS011;5375;51.250;6.776;2023-03-14T15:02:48;2.10;;;0.80;;
10653;SDS011;5375;51.250;6.776;2023-03-14T15:05:27;2.23;;;0.80;;
10653;SDS011;5375;51.250;6.776;2023-03-14T15:07:55;2.53;;;0.90;;
10653;SDS011;5375;51.250;6.776;2023-03-14T15:10:23;1.53;;;0.60;;
10653;SDS011;5375;51.250;6.776;2023-03-14T15:12:50;0.97;;;0.60;;
10653;SDS011;5375;51.250;6.776;2023-03-14T15:15:16;2.10;;;0.80;;
10653;SDS011;5375;51.250;6.776;2023-03-14T15:17:42;2.60;;;0.70;;
10653;SDS011;5375;51.250;6.776;2023-03-14T15:20:15;1.40;;;0.70;;
10653;SDS011;5375;51.250;6.776;2023-03-14T15:22:42;2.60;;;0.80;;
10653;SDS011;5375;51.250;6.776;2023-03-14T15:25:08;1.50;;;0.80;;
10653;SDS011;5375;51.250;6.776;2023-03-14T15:27:35;1.83;;;0.70;;
10653;SDS011;5375;51.250;6.776;2023-03-14T15:30:02;5.27;;;1.00;;
10653;SDS011;5375;51.250;6.776;2023-03-14T15:32:28;1.13;;;0.63;;
10653;SDS011;5375;51.250;6.776;2023-03-14T15:34:56;2.70;;;0.90;;
10653;SDS011;5375;51.250;6.776;2023-03-14T15:37:22;4.37;;;0.70;;
10653;SDS011;5375;51.250;6.776;2023-03-14T15:39:48;2.77;;;0.90;;
10653;SDS011;5375;51.250;6.776;2023-03-14T15:42:14;3.30;;;0.63;;
10653;SDS011;5375;51.250;6.776;2023-03-14T15:44:40;1.83;;;0.67;;
10653;SDS011;5375;51.250;6.776;2023-03-14T15:47:05;1.93;;;1.00;;
10653;SDS011;5375;51.250;6.776;2023-03-14T15:49:33;1.40;;;0.50;;
10653;SDS011;5375;51.250;6.776;2023-03-14T15:51:59;4.47;;;0.60;;
10653;SDS011;5375;51.250;6.776;2023-03-14T15:54:25;2.83;;;0.80;;
10653;SDS011;5375;51.250;6.776;2023-03-14T15:56:53;1.40;;;0.70;;
10653;SDS011;5375;51.250;6.776;2023-03-14T15:59:20;2.30;;;0.67;;
10653;SDS011;5375;51.250;6.776;2023-03-14T16:01:46;2.23;;;0.83;;
10653;SDS011;5375;51.250;6.776;2023-03-14T16:04:13;2.10;;;0.70;;
10653;SDS011;5375;51.250;6.776;2023-03-14T16:06:39;1.47;;;0.70;;
10653;SDS011;5375;51.250;6.776;2023-03-14T16:09:04;2.57;;;0.70;;
10653;SDS011;5375;51.250;6.776;2023-03-14T16:11:30;1.30;;;0.80;;
10653;SDS011;5375;51.250;6.776;2023-03-14T16:13:56;2.03;;;0.90;;
10653;SDS011;5375;51.250;6.776;2023-03-14T16:16:21;1.70;;;0.80;;
10653;SDS011;5375;51.250;6.776;2023-03-14T16:18:47;6.03;;;0.70;;
10653;SDS011;5375;51.250;6.776;2023-03-14T16:21:14;1.10;;;0.60;;
10653;SDS011;5375;51.250;6.776;2023-03-14T16:23:41;1.80;;;0.63;;
10653;SDS011;5375;51.250;6.776;2023-03-14T16:26:08;1.10;;;0.70;;
10653;SDS011;5375;51.250;6.776;2023-03-14T16:28:36;1.53;;;0.67;;
10653;SDS011;5375;51.250;6.776;2023-03-14T16:31:03;1.37;;;0.60;;
10653;SDS011;5375;51.250;6.776;2023-03-14T16:33:30;3.77;;;1.00;;
10653;SDS011;5375;51.250;6.776;2023-03-14T16:35:57;3.27;;;0.80;;